N124TL KSQL-0Q3
Flight info
| Callsign | N124TL |
|---|---|
| Flight time | 0h 24m |
| Altitude | 2500 |
| Route | VFR WEST PACIFICA VFR NOT IN SFO AIRSPACE THEN 3NM FROM BAY BRIDGE THEN BACK ON PACIFICA VFR NORTH |
| Aircraft | BE58/L-VGD/C |
Departure
| Time | 2026-04-18 02:37 |
|---|---|
| Airport | San Carlos Airport (KSQL) |
Arrival
| Time | 2026-04-18 03:01 |
|---|---|
| Airport | Sonoma Valley Airport (0Q3) |
| Time | Latitude | Longitude | Altitude | Speed | Heading |
|---|---|---|---|---|---|
| 2026-04-18 02:21 | 37.51699 | -122.24992 | 8 ft | 0 kts | 96° |
| 2026-04-18 02:28 | 37.51696 | -122.24983 | 8 ft | 5 kts | 135° |
| 2026-04-18 02:28 | 37.51620 | -122.24985 | 7 ft | 8 kts | 166° |
| 2026-04-18 02:28 | 37.51553 | -122.24937 | 6 ft | 8 kts | 156° |
| 2026-04-18 02:29 | 37.51491 | -122.24948 | 7 ft | 12 kts | 152° |
| 2026-04-18 02:29 | 37.51414 | -122.25038 | 10 ft | 19 kts | 229° |
| 2026-04-18 02:29 | 37.51349 | -122.25040 | 10 ft | 19 kts | 139° |
| 2026-04-18 02:29 | 37.51225 | -122.24903 | 10 ft | 23 kts | 151° |
| 2026-04-18 02:30 | 37.51097 | -122.24788 | 10 ft | 17 kts | 134° |
| 2026-04-18 02:30 | 37.51070 | -122.24738 | 10 ft | 0 kts | 134° |
| 2026-04-18 02:35 | 37.51069 | -122.24738 | 10 ft | 2 kts | 135° |
| 2026-04-18 02:35 | 37.51035 | -122.24716 | 10 ft | 3 kts | 143° |
| 2026-04-18 02:35 | 37.50983 | -122.24664 | 10 ft | 14 kts | 155° |
| 2026-04-18 02:36 | 37.50957 | -122.24696 | 10 ft | 0 kts | 315° |
| 2026-04-18 02:36 | 37.51185 | -122.24953 | 12 ft | 84 kts | 316° |
| 2026-04-18 02:36 | 37.51681 | -122.25503 | 260 ft | 108 kts | 319° |
| 2026-04-18 02:37 | 37.52327 | -122.26185 | 499 ft | 129 kts | 319° |
| 2026-04-18 02:37 | 37.53045 | -122.26947 | 805 ft | 139 kts | 319° |
| 2026-04-18 02:37 | 37.53787 | -122.27741 | 1145 ft | 143 kts | 319° |
| 2026-04-18 02:37 | 37.54436 | -122.28689 | 1489 ft | 146 kts | 291° |
| 2026-04-18 02:38 | 37.54376 | -122.29964 | 1834 ft | 153 kts | 246° |
| 2026-04-18 02:38 | 37.53671 | -122.30963 | 2186 ft | 156 kts | 224° |
| 2026-04-18 02:38 | 37.52855 | -122.31879 | 2544 ft | 156 kts | 224° |
| 2026-04-18 02:38 | 37.52045 | -122.32800 | 2892 ft | 157 kts | 224° |
| 2026-04-18 02:39 | 37.51268 | -122.33697 | 3381 ft | 146 kts | 231° |
| 2026-04-18 02:39 | 37.50967 | -122.34803 | 3898 ft | 129 kts | 275° |
| 2026-04-18 02:39 | 37.51086 | -122.35935 | 4026 ft | 149 kts | 282° |
| 2026-04-18 02:39 | 37.51185 | -122.37338 | 3813 ft | 176 kts | 267° |
| 2026-04-18 02:40 | 37.51025 | -122.38893 | 3866 ft | 177 kts | 264° |
| 2026-04-18 02:40 | 37.50850 | -122.40444 | 3877 ft | 178 kts | 264° |
| 2026-04-18 02:40 | 37.50681 | -122.41956 | 3876 ft | 174 kts | 264° |
| 2026-04-18 02:40 | 37.50517 | -122.43461 | 3876 ft | 170 kts | 265° |
| 2026-04-18 02:41 | 37.50780 | -122.44863 | 3882 ft | 165 kts | 300° |
| 2026-04-18 02:41 | 37.51362 | -122.46109 | 3881 ft | 164 kts | 304° |
| 2026-04-18 02:41 | 37.51960 | -122.47346 | 3881 ft | 164 kts | 304° |
| 2026-04-18 02:41 | 37.52561 | -122.48581 | 3880 ft | 164 kts | 304° |
| 2026-04-18 02:42 | 37.53160 | -122.49809 | 3880 ft | 164 kts | 304° |
| 2026-04-18 02:42 | 37.53878 | -122.50879 | 3877 ft | 160 kts | 332° |
| 2026-04-18 02:42 | 37.54933 | -122.51175 | 3863 ft | 154 kts | 359° |
| 2026-04-18 02:42 | 37.56065 | -122.51201 | 3562 ft | 166 kts | 1° |
| 2026-04-18 02:43 | 37.57254 | -122.51205 | 3275 ft | 171 kts | 1° |
| 2026-04-18 02:43 | 37.58444 | -122.51205 | 3003 ft | 173 kts | 1° |
| 2026-04-18 02:43 | 37.59662 | -122.51197 | 2733 ft | 174 kts | 1° |
| 2026-04-18 02:43 | 37.60866 | -122.51177 | 2465 ft | 173 kts | 1° |
| 2026-04-18 02:44 | 37.62075 | -122.51244 | 2190 ft | 173 kts | 347° |
| 2026-04-18 02:44 | 37.63192 | -122.51739 | 2078 ft | 163 kts | 338° |
| 2026-04-18 02:44 | 37.64240 | -122.52277 | 2100 ft | 164 kts | 338° |
| 2026-04-18 02:44 | 37.65297 | -122.52823 | 2101 ft | 163 kts | 338° |
| 2026-04-18 02:45 | 37.66352 | -122.53369 | 2101 ft | 163 kts | 338° |
| 2026-04-18 02:45 | 37.67448 | -122.53741 | 2100 ft | 163 kts | 347° |
| 2026-04-18 02:45 | 37.68563 | -122.54033 | 2099 ft | 163 kts | 348° |
| 2026-04-18 02:45 | 37.69697 | -122.54136 | 2100 ft | 163 kts | 2° |
| 2026-04-18 02:46 | 37.70856 | -122.54113 | 2100 ft | 163 kts | 359° |
| 2026-04-18 02:46 | 37.72000 | -122.54110 | 2100 ft | 163 kts | 359° |
| 2026-04-18 02:46 | 37.73141 | -122.54107 | 2099 ft | 163 kts | 359° |
| 2026-04-18 02:46 | 37.74280 | -122.54107 | 2101 ft | 164 kts | 359° |
| 2026-04-18 02:47 | 37.75414 | -122.53949 | 2102 ft | 164 kts | 15° |
| 2026-04-18 02:47 | 37.76447 | -122.53300 | 2101 ft | 166 kts | 30° |
| 2026-04-18 02:47 | 37.77421 | -122.52518 | 2100 ft | 166 kts | 31° |
| 2026-04-18 02:47 | 37.78401 | -122.51726 | 2100 ft | 166 kts | 31° |
| 2026-04-18 02:48 | 37.79303 | -122.50794 | 2100 ft | 167 kts | 40° |
| 2026-04-18 02:48 | 37.80117 | -122.49739 | 2099 ft | 169 kts | 50° |
| 2026-04-18 02:48 | 37.80797 | -122.48508 | 2098 ft | 169 kts | 53° |
| 2026-04-18 02:48 | 37.81740 | -122.47727 | 2097 ft | 165 kts | 9° |
| 2026-04-18 02:49 | 37.82863 | -122.47909 | 2096 ft | 163 kts | 334° |
| 2026-04-18 02:49 | 37.83822 | -122.48662 | 2096 ft | 163 kts | 325° |
| 2026-04-18 02:49 | 37.84764 | -122.49485 | 2098 ft | 163 kts | 325° |
| 2026-04-18 02:49 | 37.85700 | -122.50308 | 2102 ft | 163 kts | 325° |
| 2026-04-18 02:50 | 37.86801 | -122.50653 | 2099 ft | 166 kts | 5° |
| 2026-04-18 02:50 | 37.87941 | -122.50396 | 2098 ft | 166 kts | 9° |
| 2026-04-18 02:50 | 37.89087 | -122.50158 | 2097 ft | 167 kts | 7° |
| 2026-04-18 02:50 | 37.90253 | -122.49949 | 2099 ft | 167 kts | 6° |
| 2026-04-18 02:51 | 37.91395 | -122.49758 | 2100 ft | 167 kts | 6° |
| 2026-04-18 02:51 | 37.92568 | -122.49567 | 2094 ft | 168 kts | 6° |
| 2026-04-18 02:51 | 37.93729 | -122.49379 | 2089 ft | 167 kts | 6° |
| 2026-04-18 02:51 | 37.94894 | -122.49191 | 2091 ft | 167 kts | 6° |
| 2026-04-18 02:52 | 37.96043 | -122.49007 | 2092 ft | 167 kts | 6° |
| 2026-04-18 02:52 | 37.97196 | -122.48821 | 2091 ft | 166 kts | 6° |
| 2026-04-18 02:52 | 37.98359 | -122.48634 | 2091 ft | 166 kts | 6° |
| 2026-04-18 02:52 | 37.99492 | -122.48451 | 2092 ft | 165 kts | 6° |
| 2026-04-18 02:53 | 38.00641 | -122.48267 | 2100 ft | 165 kts | 6° |
| 2026-04-18 02:53 | 38.01789 | -122.48082 | 2096 ft | 166 kts | 6° |
| 2026-04-18 02:53 | 38.02943 | -122.47897 | 2097 ft | 166 kts | 6° |
| 2026-04-18 02:53 | 38.04102 | -122.47710 | 2098 ft | 166 kts | 6° |
| 2026-04-18 02:54 | 38.05249 | -122.47525 | 2098 ft | 166 kts | 6° |
| 2026-04-18 02:54 | 38.06410 | -122.47338 | 2098 ft | 167 kts | 6° |
| 2026-04-18 02:54 | 38.07567 | -122.47151 | 2097 ft | 167 kts | 6° |
| 2026-04-18 02:54 | 38.08721 | -122.46965 | 2097 ft | 167 kts | 6° |
| 2026-04-18 02:55 | 38.09887 | -122.46761 | 1639 ft | 176 kts | 7° |
| 2026-04-18 02:55 | 38.11113 | -122.46529 | 1202 ft | 171 kts | 9° |
| 2026-04-18 02:55 | 38.12223 | -122.46167 | 1076 ft | 161 kts | 14° |
| 2026-04-18 02:55 | 38.13269 | -122.45802 | 829 ft | 162 kts | 13° |
| 2026-04-18 02:56 | 38.14285 | -122.45476 | 639 ft | 155 kts | 12° |
| 2026-04-18 02:56 | 38.15299 | -122.45165 | 766 ft | 147 kts | 11° |
| 2026-04-18 02:56 | 38.17300 | -122.44582 | 856 ft | 145 kts | 1° |
| 2026-04-18 02:57 | 38.18320 | -122.44522 | 822 ft | 149 kts | 356° |
| 2026-04-18 02:57 | 38.19406 | -122.44556 | 583 ft | 161 kts | 357° |
| 2026-04-18 02:57 | 38.20524 | -122.44611 | 409 ft | 161 kts | 354° |
| 2026-04-18 02:57 | 38.21607 | -122.44682 | 529 ft | 144 kts | 356° |
| 2026-04-18 02:58 | 38.22571 | -122.44932 | 535 ft | 136 kts | 352° |
| 2026-04-18 02:58 | 38.23421 | -122.45249 | 663 ft | 116 kts | 300° |
| 2026-04-18 02:58 | 38.23298 | -122.46168 | 679 ft | 117 kts | 223° |
| 2026-04-18 02:58 | 38.22459 | -122.46242 | 521 ft | 135 kts | 171° |
| 2026-04-18 02:59 | 38.21595 | -122.45985 | 904 ft | 118 kts | 167° |
| 2026-04-18 02:59 | 38.21021 | -122.45154 | 827 ft | 148 kts | 101° |
| 2026-04-18 02:59 | 38.20959 | -122.43755 | 741 ft | 163 kts | 90° |
| 2026-04-18 02:59 | 38.21001 | -122.42343 | 577 ft | 158 kts | 83° |
| 2026-04-18 03:00 | 38.21673 | -122.41592 | 539 ft | 131 kts | 355° |
| 2026-04-18 03:00 | 38.22251 | -122.42268 | 392 ft | 123 kts | 291° |
| 2026-04-18 03:00 | 38.22329 | -122.43259 | 249 ft | 101 kts | 269° |
| 2026-04-18 03:00 | 38.22328 | -122.44036 | 70 ft | 79 kts | 270° |
| 2026-04-18 03:01 | 38.22330 | -122.44719 | 10 ft | 68 kts | 270° |
| 2026-04-18 03:01 | 38.22330 | -122.45125 | 12 ft | 29 kts | 271° |
| 2026-04-18 03:01 | 38.22331 | -122.45348 | 12 ft | 20 kts | 272° |
| 2026-04-18 03:01 | 38.22345 | -122.45439 | 13 ft | 0 kts | 176° |